Voyager — C6WC2 — position and weather

sailwx.info

Track history (hours):
 
Tides and Currents Weather Stations Pressure Air Temp Water Temp Dewpoint Dewpoint Depression Visibility Wind Speed Wind Dir Waves Ship Positions

Voyager

Last reported at 2014-Jul-23 06:31 UTC. Time now 2014-Jul-23 07:26 UTC.
Position N 57°38' E 018°16'.

Length 151 m; draft 6 m.

Type: Passenger vessel. MMSI: 309695000.

Date/timePositionNaut miles runAvg speedWind from/ knotsBaromVisibWave heightAir tempDewpointWater temp
2014-Jul-23 06:31N 57°38' E 018°16'0 0.0
2014-Jul-23 05:31N 57°38' E 018°16'0 0.0
2014-Jul-23 04:31N 57°38' E 018°16'5 5.2
2014-Jul-23 03:33N 57°43' E 018°17'1313.4
2014-Jul-23 02:33N 57°56' E 018°23'1513.9
2014-Jul-23 01:29N 58°11' E 018°30'1313.9
2014-Jul-23 00:33N 58°23' E 018°36'1414.4
2014-Jul-22 23:33N 58°37' E 018°44'1414.2
2014-Jul-22 22:33N 58°51' E 018°51'35 7.1
2014-Jul-22 17:34N 59°20' E 018°11'3 2.6
2014-Jul-22 16:28N 59°19' E 018°05'0 0.0
2014-Jul-22 13:10N 59°19' E 018°05'0 0.0
2014-Jul-22 07:04N 59°19' E 018°05'0 0.0
2014-Jul-22 06:19N 59°19' E 018°05'2 3.2
2014-Jul-22 05:33N 59°19' E 018°10'10311.4
2014-Jul-21 20:34N 59°27' E 021°31'414.3
2014-Jul-21 20:18N 59°27' E 021°38'1114.5
2014-Jul-21 19:34N 59°29' E 021°59'1514.8
2014-Jul-21 18:33N 59°32' E 022°28'1514.6
2014-Jul-21 17:33N 59°32' E 022°57'1514.8
2014-Jul-21 16:34N 59°32' E 023°26'1514.5
2014-Jul-21 15:32N 59°31' E 023°55'26 5.2
2014-Jul-21 10:33N 59°27' E 024°46'0 0.1
2014-Jul-21 05:26N 59°27' E 024°46'1213.7
2014-Jul-21 04:31N 59°39' E 024°39'1313.6
2014-Jul-21 03:33N 59°50' E 024°55'1616.0
2014-Jul-21 02:33N 59°53' E 025°26'1616.0
2014-Jul-21 01:33N 59°57' E 025°57'1615.8
2014-Jul-21 00:33N 60°01' E 026°28'1515.3
2014-Jul-20 23:33N 59°60' E 026°58'1515.3
2014-Jul-20 22:33N 60°07' E 027°26'8612.3
2014-Jul-20 15:34N 59°56' E 030°16'0 0.1
2014-Jul-20 14:26N 59°56' E 030°16'0 0.0
2014-Jul-20 13:29N 59°56' E 030°16'0 0.0
2014-Jul-20 12:32N 59°56' E 030°16'0 0.0
2014-Jul-20 11:29N 59°56' E 030°16'0 0.0
2014-Jul-20 10:32N 59°56' E 030°16'0 0.0
2014-Jul-20 09:29N 59°56' E 030°16'0 0.0
2014-Jul-20 08:32N 59°56' E 030°16'0 0.0
2014-Jul-20 07:29N 59°56' E 030°16'0 0.0
2014-Jul-20 06:32N 59°56' E 030°16'0 0.0
2014-Jul-20 05:32N 59°56' E 030°16'0 0.0
2014-Jul-20 04:32N 59°56' E 030°16'0 0.0
2014-Jul-20 03:32N 59°56' E 030°16'0 0.0
2014-Jul-20 02:29N 59°56' E 030°16'0 0.0
2014-Jul-20 01:32N 59°56' E 030°16'0 0.0
2014-Jul-20 00:23N 59°56' E 030°16'0 0.0
2014-Jul-19 23:29N 59°56' E 030°16'0 0.0
2014-Jul-19 22:29N 59°56' E 030°16'0 0.0
2014-Jul-19 21:29N 59°56' E 030°16'0 0.0
2014-Jul-19 20:29N 59°56' E 030°16'0 0.0
2014-Jul-19 19:29N 59°56' E 030°16'0 0.0
2014-Jul-19 18:29N 59°56' E 030°16'0 0.0
2014-Jul-19 17:05N 59°56' E 030°16'0 0.0
2014-Jul-19 16:29N 59°56' E 030°16'0 0.0
2014-Jul-19 15:26N 59°56' E 030°16'0 0.0
2014-Jul-19 14:32N 59°56' E 030°16'0 0.0
2014-Jul-19 13:32N 59°56' E 030°16'0 0.0
2014-Jul-19 12:32N 59°56' E 030°16'0 0.0
2014-Jul-19 11:29N 59°56' E 030°16'0 0.0
2014-Jul-19 10:32N 59°56' E 030°16'5 0.5
2014-Jul-19 01:32N 59°54' E 030°08'7712.4
2014-Jul-18 19:20N 60°08' E 027°37'1113.9
2014-Jul-18 18:33N 60°03' E 027°19'1313.2
2014-Jul-18 17:33N 59°59' E 026°53'1514.6
2014-Jul-18 16:33N 59°57' E 026°24'1615.7
2014-Jul-18 15:33N 59°53' E 025°54'1615.4
2014-Jul-18 14:33N 59°50' E 025°24'2215.7
2014-Jul-18 13:09N 59°46' E 024°41'1215.6
2014-Jul-18 12:22N 59°42' E 024°18'1315.6
2014-Jul-18 11:33N 59°38' E 023°54'1515.4
2014-Jul-18 10:33N 59°33' E 023°25'1615.5
2014-Jul-18 09:33N 59°28' E 022°56'167 5.2
2014-Jul-17 01:15N 57°17' E 019°39'12316.0
2014-Jul-16 17:33N 56°02' E 016°40'1616.1
2014-Jul-16 16:33N 55°54' E 016°16'1616.1
2014-Jul-16 15:33N 55°46' E 015°51'1616.5
2014-Jul-16 14:34N 55°38' E 015°25'1716.8
2014-Jul-16 13:33N 55°30' E 014°60'1716.7
2014-Jul-16 12:33N 55°21' E 014°35'1615.9
2014-Jul-16 11:33N 55°10' E 014°15'3216.2
2014-Jul-16 09:33N 55°10' E 013°18'1616.2
2014-Jul-16 08:33N 55°15' E 012°51'1312.7
2014-Jul-16 07:33N 55°26' E 012°40'1211.8
2014-Jul-16 06:33N 55°38' E 012°42'1413.8
2014-Jul-16 05:33N 55°52' E 012°40'1515.0
2014-Jul-16 04:33N 56°06' E 012°33'1615.8
2014-Jul-16 03:34N 56°14' E 012°09'1514.7
2014-Jul-16 02:32N 56°28' E 011°58'1615.8
2014-Jul-16 01:33N 56°44' E 011°53'1615.8
2014-Jul-16 00:33N 56°58' E 011°43'1615.7
2014-Jul-15 23:33N 57°13' E 011°33'1616.3
2014-Jul-15 22:34N 57°28' E 011°23'1616.4
2014-Jul-15 21:33N 57°44' E 011°12'1616.4
2014-Jul-15 20:33N 57°59' E 010°60'4914.9
2014-Jul-15 17:15N 58°47' E 010°36'1115.2
2014-Jul-15 16:33N 58°57' E 010°35'1312.9
2014-Jul-15 15:33N 59°10' E 010°38'1615.6
2014-Jul-15 14:33N 59°25' E 010°33'2713.1
2014-Jul-15 12:29N 59°52' E 010°38'4 3.5
2014-Jul-15 11:26N 59°54' E 010°44'0 0.0
2014-Jul-15 10:26N 59°54' E 010°44'0 0.0
2014-Jul-15 09:29N 59°54' E 010°44'0 0.0
2014-Jul-15 08:32N 59°54' E 010°44'0 0.0
2014-Jul-15 07:29N 59°54' E 010°44'0 0.0
2014-Jul-15 06:32N 59°54' E 010°44'20 9.9
2014-Jul-15 04:32N 59°35' E 010°38'1515.6
2014-Jul-15 03:34N 59°20' E 010°36'1414.4
2014-Jul-15 02:33N 59°05' E 010°35'1313.1
2014-Jul-15 01:33N 58°54' E 010°24'23516.5
2014-Jul-14 11:20N 55°37' E 006°27'1716.1
2014-Jul-14 10:18N 55°23' E 006°12'1316.8
2014-Jul-14 09:30N 55°11' E 005°60'6817.0
2014-Jul-14 05:31N 54°13' E 005°01'2216.5
2014-Jul-14 04:11N 53°56' E 004°36'16315.0
2014-Jul-13 17:19N 51°29' E 002°43'810.4
2014-Jul-13 16:33N 51°21' E 002°47'9 9.4
2014-Jul-13 15:34N 51°14' E 002°56'0 0.1
2014-Jul-13 14:32N 51°14' E 002°56'0 0.0
2014-Jul-13 13:32N 51°14' E 002°56'0 0.0
2014-Jul-13 12:32N 51°14' E 002°56'0 0.0
2014-Jul-13 11:32N 51°14' E 002°56'0 0.0
2014-Jul-13 10:32N 51°14' E 002°56'0 0.3
2014-Jul-13 09:34N 51°14' E 002°55'9 9.2
2014-Jul-13 08:33N 51°21' E 002°47'1010.1
2014-Jul-13 07:33N 51°31' E 002°42'  
Track history (hours):
 
Tides and Currents Weather Stations Pressure Air Temp Water Temp Dewpoint Dewpoint Depression Visibility Wind Speed Wind Dir Waves Ship Positions

Voyager

Last reported at 2014-Jul-23 06:31 UTC. Time now 2014-Jul-23 07:26 UTC.
Position N 57°38' E 018°16'.

Length 151 m; draft 6 m.

Type: Passenger vessel. MMSI: 309695000.

Date/timePositionNaut miles runAvg speedWind from/ knotsBaromVisibWave heightAir tempDewpointWater temp
2014-Jul-23 06:31N 57°38' E 018°16'0 0.0
2014-Jul-23 05:31N 57°38' E 018°16'0 0.0
2014-Jul-23 04:31N 57°38' E 018°16'5 5.2
2014-Jul-23 03:33N 57°43' E 018°17'1313.4
2014-Jul-23 02:33N 57°56' E 018°23'1513.9
2014-Jul-23 01:29N 58°11' E 018°30'1313.9
2014-Jul-23 00:33N 58°23' E 018°36'1414.4
2014-Jul-22 23:33N 58°37' E 018°44'1414.2
2014-Jul-22 22:33N 58°51' E 018°51'35 7.1
2014-Jul-22 17:34N 59°20' E 018°11'3 2.6
2014-Jul-22 16:28N 59°19' E 018°05'0 0.0
2014-Jul-22 13:10N 59°19' E 018°05'0 0.0
2014-Jul-22 07:04N 59°19' E 018°05'0 0.0
2014-Jul-22 06:19N 59°19' E 018°05'2 3.2
2014-Jul-22 05:33N 59°19' E 018°10'10311.4
2014-Jul-21 20:34N 59°27' E 021°31'414.3
2014-Jul-21 20:18N 59°27' E 021°38'1114.5
2014-Jul-21 19:34N 59°29' E 021°59'1514.8
2014-Jul-21 18:33N 59°32' E 022°28'1514.6
2014-Jul-21 17:33N 59°32' E 022°57'1514.8
2014-Jul-21 16:34N 59°32' E 023°26'1514.5
2014-Jul-21 15:32N 59°31' E 023°55'26 5.2
2014-Jul-21 10:33N 59°27' E 024°46'0 0.1
2014-Jul-21 05:26N 59°27' E 024°46'1213.7
2014-Jul-21 04:31N 59°39' E 024°39'1313.6
2014-Jul-21 03:33N 59°50' E 024°55'1616.0
2014-Jul-21 02:33N 59°53' E 025°26'1616.0
2014-Jul-21 01:33N 59°57' E 025°57'1615.8
2014-Jul-21 00:33N 60°01' E 026°28'1515.3
2014-Jul-20 23:33N 59°60' E 026°58'1515.3
2014-Jul-20 22:33N 60°07' E 027°26'8612.3
2014-Jul-20 15:34N 59°56' E 030°16'0 0.1
2014-Jul-20 14:26N 59°56' E 030°16'0 0.0
2014-Jul-20 13:29N 59°56' E 030°16'0 0.0
2014-Jul-20 12:32N 59°56' E 030°16'0 0.0
2014-Jul-20 11:29N 59°56' E 030°16'0 0.0
2014-Jul-20 10:32N 59°56' E 030°16'0 0.0
2014-Jul-20 09:29N 59°56' E 030°16'0 0.0
2014-Jul-20 08:32N 59°56' E 030°16'0 0.0
2014-Jul-20 07:29N 59°56' E 030°16'0 0.0
2014-Jul-20 06:32N 59°56' E 030°16'0 0.0
2014-Jul-20 05:32N 59°56' E 030°16'0 0.0
2014-Jul-20 04:32N 59°56' E 030°16'0 0.0
2014-Jul-20 03:32N 59°56' E 030°16'0 0.0
2014-Jul-20 02:29N 59°56' E 030°16'0 0.0
2014-Jul-20 01:32N 59°56' E 030°16'0 0.0
2014-Jul-20 00:23N 59°56' E 030°16'0 0.0
2014-Jul-19 23:29N 59°56' E 030°16'0 0.0
2014-Jul-19 22:29N 59°56' E 030°16'0 0.0
2014-Jul-19 21:29N 59°56' E 030°16'0 0.0
2014-Jul-19 20:29N 59°56' E 030°16'0 0.0
2014-Jul-19 19:29N 59°56' E 030°16'0 0.0
2014-Jul-19 18:29N 59°56' E 030°16'0 0.0
2014-Jul-19 17:05N 59°56' E 030°16'0 0.0
2014-Jul-19 16:29N 59°56' E 030°16'0 0.0
2014-Jul-19 15:26N 59°56' E 030°16'0 0.0
2014-Jul-19 14:32N 59°56' E 030°16'0 0.0
2014-Jul-19 13:32N 59°56' E 030°16'0 0.0
2014-Jul-19 12:32N 59°56' E 030°16'0 0.0
2014-Jul-19 11:29N 59°56' E 030°16'0 0.0
2014-Jul-19 10:32N 59°56' E 030°16'5 0.5
2014-Jul-19 01:32N 59°54' E 030°08'7712.4
2014-Jul-18 19:20N 60°08' E 027°37'1113.9
2014-Jul-18 18:33N 60°03' E 027°19'1313.2
2014-Jul-18 17:33N 59°59' E 026°53'1514.6
2014-Jul-18 16:33N 59°57' E 026°24'1615.7
2014-Jul-18 15:33N 59°53' E 025°54'1615.4
2014-Jul-18 14:33N 59°50' E 025°24'2215.7
2014-Jul-18 13:09N 59°46' E 024°41'1215.6
2014-Jul-18 12:22N 59°42' E 024°18'1315.6
2014-Jul-18 11:33N 59°38' E 023°54'1515.4
2014-Jul-18 10:33N 59°33' E 023°25'1615.5
2014-Jul-18 09:33N 59°28' E 022°56'167 5.2
2014-Jul-17 01:15N 57°17' E 019°39'12316.0
2014-Jul-16 17:33N 56°02' E 016°40'1616.1
2014-Jul-16 16:33N 55°54' E 016°16'1616.1
2014-Jul-16 15:33N 55°46' E 015°51'1616.5
2014-Jul-16 14:34N 55°38' E 015°25'1716.8
2014-Jul-16 13:33N 55°30' E 014°60'1716.7
2014-Jul-16 12:33N 55°21' E 014°35'1615.9
2014-Jul-16 11:33N 55°10' E 014°15'3216.2
2014-Jul-16 09:33N 55°10' E 013°18'1616.2
2014-Jul-16 08:33N 55°15' E 012°51'1312.7
2014-Jul-16 07:33N 55°26' E 012°40'1211.8
2014-Jul-16 06:33N 55°38' E 012°42'1413.8
2014-Jul-16 05:33N 55°52' E 012°40'1515.0
2014-Jul-16 04:33N 56°06' E 012°33'1615.8
2014-Jul-16 03:34N 56°14' E 012°09'1514.7
2014-Jul-16 02:32N 56°28' E 011°58'1615.8
2014-Jul-16 01:33N 56°44' E 011°53'1615.8
2014-Jul-16 00:33N 56°58' E 011°43'1615.7
2014-Jul-15 23:33N 57°13' E 011°33'1616.3
2014-Jul-15 22:34N 57°28' E 011°23'1616.4
2014-Jul-15 21:33N 57°44' E 011°12'1616.4
2014-Jul-15 20:33N 57°59' E 010°60'4914.9
2014-Jul-15 17:15N 58°47' E 010°36'1115.2
2014-Jul-15 16:33N 58°57' E 010°35'1312.9
2014-Jul-15 15:33N 59°10' E 010°38'1615.6
2014-Jul-15 14:33N 59°25' E 010°33'2713.1
2014-Jul-15 12:29N 59°52' E 010°38'4 3.5
2014-Jul-15 11:26N 59°54' E 010°44'0 0.0
2014-Jul-15 10:26N 59°54' E 010°44'0 0.0
2014-Jul-15 09:29N 59°54' E 010°44'0 0.0
2014-Jul-15 08:32N 59°54' E 010°44'0 0.0
2014-Jul-15 07:29N 59°54' E 010°44'0 0.0
2014-Jul-15 06:32N 59°54' E 010°44'20 9.9
2014-Jul-15 04:32N 59°35' E 010°38'1515.6
2014-Jul-15 03:34N 59°20' E 010°36'1414.4
2014-Jul-15 02:33N 59°05' E 010°35'1313.1
2014-Jul-15 01:33N 58°54' E 010°24'23516.5
2014-Jul-14 11:20N 55°37' E 006°27'1716.1
2014-Jul-14 10:18N 55°23' E 006°12'1316.8
2014-Jul-14 09:30N 55°11' E 005°60'6817.0
2014-Jul-14 05:31N 54°13' E 005°01'2216.5
2014-Jul-14 04:11N 53°56' E 004°36'16315.0
2014-Jul-13 17:19N 51°29' E 002°43'810.4
2014-Jul-13 16:33N 51°21' E 002°47'9 9.4
2014-Jul-13 15:34N 51°14' E 002°56'0 0.1
2014-Jul-13 14:32N 51°14' E 002°56'0 0.0
2014-Jul-13 13:32N 51°14' E 002°56'0 0.0
2014-Jul-13 12:32N 51°14' E 002°56'0 0.0
2014-Jul-13 11:32N 51°14' E 002°56'0 0.0
2014-Jul-13 10:32N 51°14' E 002°56'0 0.3
2014-Jul-13 09:34N 51°14' E 002°55'9 9.2
2014-Jul-13 08:33N 51°21' E 002°47'1010.1
2014-Jul-13 07:33N 51°31' E 002°42'  

Dump ship's entire track history